Time;durP1;ratioP1;P1;durP2;ratioP2;P2;SDS_P1;SDS_P2;PMS_P1;PMS_P2;Temp;Humidity;BMP_temperature;BMP_pressure;BME280_temperature;BME280_humidity;BME280_pressure;Samples;Min_cycle;Max_cycle;Signal;HPM_P1;HPM_P2
2023/06/21 00:01:46;;;;;;;;;;;;;;;21.79;76.86;97838.72;5047199;28;19979;-61
2023/06/21 00:04:13;;;;;;;;;;;;;;;21.71;76.82;97837.88;5069362;28;19964;-63
2023/06/21 00:06:41;;;;;;;;;;;;;;;21.63;76.69;97850.06;5064621;28;20329;-61
2023/06/21 00:09:10;;;;;;;;;;;;;;;21.70;76.99;97852.09;5069664;28;19929;-61
2023/06/21 00:11:39;;;;;;;;;;;;;;;21.70;76.65;97855.63;5067770;28;20373;-61
2023/06/21 00:14:07;;;;;;;;;;;;;;;21.74;77.31;97860.41;5063486;28;19924;-61
2023/06/21 00:16:34;;;;;;;;;;;;;;;21.66;77.81;97856.78;5063806;28;19967;-62
2023/06/21 00:19:02;;;;;;;;;;;;;;;21.70;77.40;97854.84;5068716;28;19933;-61
2023/06/21 00:21:30;;;;;;;;;;;;;;;21.67;78.00;97841.78;5052858;28;20369;-60
2023/06/21 00:24:02;;;;;;;;;;;;;;;21.75;77.58;97840.66;5071620;28;19924;-62
2023/06/21 00:26:30;;;;;;;;;;;;;;;21.77;78.43;97843.03;5066435;28;20382;-62
2023/06/21 00:29:01;;;;;;;;;;;;;;;21.74;78.70;97839.06;5070541;28;20109;-62
2023/06/21 00:31:30;;;;;;;;;;;;;;;21.75;78.06;97845.41;5069164;28;19925;-60
2023/06/21 00:33:58;;;;;;;;;;;;;;;21.81;78.94;97846.63;5062873;28;19955;-61
2023/06/21 00:36:26;;;;;;;;;;;;;;;21.84;78.40;97843.06;5068847;28;20352;-61
2023/06/21 00:38:53;;;;;;;;;;;;;;;21.85;78.19;97839.91;5048285;28;19959;-61
2023/06/21 00:41:22;;;;;;;;;;;;;;;21.94;77.44;97843.13;5049511;28;20296;-60
2023/06/21 00:43:49;;;;;;;;;;;;;;;21.86;78.26;97829.66;5045008;28;19928;-61
2023/06/21 00:46:19;;;;;;;;;;;;;;;21.79;78.90;97835.94;5045218;28;19925;-62
2023/06/21 00:48:46;;;;;;;;;;;;;;;21.70;79.85;97838.25;5045469;28;19935;-61
2023/06/21 00:51:14;;;;;;;;;;;;;;;21.66;79.81;97837.44;5066331;28;19935;-61
2023/06/21 00:53:42;;;;;;;;;;;;;;;21.72;79.64;97841.41;5068564;28;19925;-61
2023/06/21 00:56:10;;;;;;;;;;;;;;;21.81;78.93;97841.09;5052077;28;19925;-61
2023/06/21 00:58:38;;;;;;;;;;;;;;;21.82;78.52;97840.69;5042018;28;19928;-61
2023/06/21 01:01:05;;;;;;;;;;;;;;;21.83;78.75;97836.72;5041296;28;19925;-62
2023/06/21 01:03:35;;;;;;;;;;;;;;;21.85;77.88;97837.16;5050692;28;19989;-61
2023/06/21 01:06:04;;;;;;;;;;;;;;;21.79;78.45;97841.47;5057222;28;20019;-61
2023/06/21 01:08:38;;;;;;;;;;;;;;;21.88;77.74;97843.88;5049985;28;19931;-61
2023/06/21 01:11:10;;;;;;;;;;;;;;;21.92;77.58;97839.16;5066104;28;19933;-62
2023/06/21 01:13:40;;;;;;;;;;;;;;;21.91;77.47;97848.66;5055808;28;19924;-61
2023/06/21 01:16:10;;;;;;;;;;;;;;;21.85;78.20;97850.97;5048036;28;19977;-61
2023/06/21 01:18:39;;;;;;;;;;;;;;;21.76;79.19;97850.53;5049354;28;20180;-61
2023/06/21 01:21:09;;;;;;;;;;;;;;;21.66;80.40;97851.25;5057948;28;19925;-61
2023/06/21 01:23:40;;;;;;;;;;;;;;;21.68;80.26;97858.00;5054990;28;20007;-60
2023/06/21 01:26:14;;;;;;;;;;;;;;;21.63;80.22;97852.06;5047398;28;19925;-60
2023/06/21 01:28:48;;;;;;;;;;;;;;;21.69;79.56;97862.34;5052047;28;20031;-61
2023/06/21 01:31:17;;;;;;;;;;;;;;;21.69;80.10;97864.31;5052629;28;19932;-61
2023/06/21 01:33:45;;;;;;;;;;;;;;;21.66;80.93;97870.63;5054647;28;19925;-61
2023/06/21 01:36:16;;;;;;;;;;;;;;;21.66;80.73;97876.16;5047958;28;19928;-61
2023/06/21 01:38:44;;;;;;;;;;;;;;;21.70;80.17;97888.03;5055197;28;19934;-61
2023/06/21 01:41:12;;;;;;;;;;;;;;;21.67;81.11;97883.25;5044058;28;19952;-61
2023/06/21 01:43:41;;;;;;;;;;;;;;;21.60;81.24;97888.75;5043452;28;19931;-61
2023/06/21 01:46:10;;;;;;;;;;;;;;;21.59;80.78;97887.16;5040505;28;20027;-61
2023/06/21 01:48:39;;;;;;;;;;;;;;;21.63;80.64;97893.53;5049239;28;19959;-61
2023/06/21 01:51:07;;;;;;;;;;;;;;;21.50;80.33;97887.50;5040956;28;20357;-61
2023/06/21 01:53:35;;;;;;;;;;;;;;;21.53;80.27;97888.72;5044845;28;19928;-61
2023/06/21 01:56:03;;;;;;;;;;;;;;;21.48;81.56;97881.56;5064172;28;20384;-61
2023/06/21 01:58:31;;;;;;;;;;;;;;;21.50;80.75;97881.16;5046595;28;20305;-63
2023/06/21 02:03:55;;;;;;;;;;;;;;;21.47;81.37;97887.47;5069409;28;19935;-61
2023/06/21 02:06:26;;;;;;;;;;;;;;;21.41;81.88;97881.50;5061412;28;19928;-60
2023/06/21 02:08:59;;;;;;;;;;;;;;;21.52;80.34;97882.38;5066347;28;19928;-62
2023/06/21 02:11:26;;;;;;;;;;;;;;;21.51;81.17;97880.78;5066439;28;19924;-61
2023/06/21 02:13:57;;;;;;;;;;;;;;;21.49;80.70;97883.16;5086432;28;19928;-61
2023/06/21 02:16:26;;;;;;;;;;;;;;;21.47;81.46;97877.22;5070736;28;19924;-61
2023/06/21 02:19:00;;;;;;;;;;;;;;;21.43;81.96;97882.72;5071268;28;19924;-61
2023/06/21 02:21:28;;;;;;;;;;;;;;;21.44;82.03;97881.53;5086709;28;19978;-61
2023/06/21 02:23:56;;;;;;;;;;;;;;;21.35;82.11;97870.00;5101998;28;19924;-62
2023/06/21 02:26:24;;;;;;;;;;;;;;;21.47;81.34;97874.47;5072851;28;19975;-60
2023/06/21 02:28:51;;;;;;;;;;;;;;;21.39;81.69;97864.50;5084494;28;20018;-61
2023/06/21 02:31:19;;;;;;;;;;;;;;;21.36;81.87;97868.84;5100437;28;19981;-61
2023/06/21 02:33:48;;;;;;;;;;;;;;;21.44;80.80;97876.00;5070031;28;19924;-60
2023/06/21 02:36:18;;;;;;;;;;;;;;;21.45;80.64;97866.53;5063727;28;20301;-61
2023/06/21 02:38:46;;;;;;;;;;;;;;;21.45;80.63;97869.28;5071357;28;19924;-61
2023/06/21 02:41:14;;;;;;;;;;;;;;;21.37;80.54;97875.97;5072581;28;19974;-61
2023/06/21 02:43:42;;;;;;;;;;;;;;;21.29;81.29;97879.81;5067287;28;19967;-61
2023/06/21 02:46:09;;;;;;;;;;;;;;;21.26;80.76;97880.59;5072004;28;20343;-61
2023/06/21 02:48:37;;;;;;;;;;;;;;;21.28;81.11;97883.75;5066369;28;20335;-61
2023/06/21 02:51:05;;;;;;;;;;;;;;;21.23;81.58;97878.56;5090936;28;19934;-61
2023/06/21 02:53:34;;;;;;;;;;;;;;;21.29;80.82;97871.50;5073059;28;20401;-63
2023/06/21 02:56:02;;;;;;;;;;;;;;;21.28;80.19;97878.22;5093399;28;19948;-61
2023/06/21 02:58:30;;;;;;;;;;;;;;;21.27;80.54;97882.16;5082247;28;20011;-61
2023/06/21 03:00:58;;;;;;;;;;;;;;;21.27;80.13;97887.69;5066604;28;19928;-61
2023/06/21 03:03:26;;;;;;;;;;;;;;;21.21;80.45;97889.22;5073148;28;19974;-60
2023/06/21 03:05:54;;;;;;;;;;;;;;;21.19;80.60;97891.56;5062536;28;20015;-61
2023/06/21 03:08:22;;;;;;;;;;;;;;;21.25;80.87;97889.22;5058415;28;19928;-61
2023/06/21 03:10:52;;;;;;;;;;;;;;;21.28;80.50;97894.78;5071175;28;19954;-61
2023/06/21 03:13:20;;;;;;;;;;;;;;;21.29;80.91;97895.59;5097525;28;20354;-62
2023/06/21 03:15:49;;;;;;;;;;;;;;;21.18;81.32;97895.50;5064834;28;20408;-61
2023/06/21 03:18:17;;;;;;;;;;;;;;;21.10;81.72;97900.19;5064099;28;19935;-61
2023/06/21 03:20:47;;;;;;;;;;;;;;;21.10;81.30;97902.16;5070308;28;19928;-61
2023/06/21 03:23:15;;;;;;;;;;;;;;;21.15;80.65;97899.03;5071994;28;20439;-61
2023/06/21 03:25:43;;;;;;;;;;;;;;;21.23;80.45;97897.91;5072703;28;19977;-60
2023/06/21 03:28:12;;;;;;;;;;;;;;;21.24;80.44;97905.03;5070937;28;19924;-60
2023/06/21 03:30:40;;;;;;;;;;;;;;;21.19;80.52;97905.38;5070689;28;19939;-61
2023/06/21 03:33:08;;;;;;;;;;;;;;;21.24;80.74;97912.50;5070251;28;19956;-61
2023/06/21 03:35:36;;;;;;;;;;;;;;;21.24;80.49;97909.75;5073486;28;19925;-60
2023/06/21 03:38:05;;;;;;;;;;;;;;;21.24;80.67;97907.78;5060902;28;19924;-60
2023/06/21 03:40:38;;;;;;;;;;;;;;;21.16;81.02;97917.19;5065003;28;20428;-60
2023/06/21 03:43:07;;;;;;;;;;;;;;;21.11;80.19;97925.84;5071633;28;19924;-60
2023/06/21 03:45:36;;;;;;;;;;;;;;;21.07;79.92;97922.25;5066953;28;19939;-60
2023/06/21 03:48:05;;;;;;;;;;;;;;;21.02;80.17;97920.63;5065875;28;19931;-61
2023/06/21 03:50:35;;;;;;;;;;;;;;;20.95;80.32;97920.56;5073916;28;20015;-61
2023/06/21 03:53:03;;;;;;;;;;;;;;;20.99;80.45;97926.91;5068802;28;19932;-61
2023/06/21 03:55:32;;;;;;;;;;;;;;;20.95;80.62;97926.06;5072397;28;19947;-61
2023/06/21 03:58:00;;;;;;;;;;;;;;;20.90;80.17;97934.69;5063568;28;19947;-61
2023/06/21 04:00:27;;;;;;;;;;;;;;;20.84;80.78;97936.22;5073386;28;19924;-60
2023/06/21 04:02:57;;;;;;;;;;;;;;;20.92;80.58;97938.66;5083641;28;19929;-63
2023/06/21 04:05:26;;;;;;;;;;;;;;;20.90;80.25;97934.69;5071228;28;20524;-61
2023/06/21 04:07:55;;;;;;;;;;;;;;;20.92;80.92;97940.63;5093754;28;19948;-60
2023/06/21 04:10:22;;;;;;;;;;;;;;;20.90;80.54;97941.00;5075237;28;19924;-61
2023/06/21 04:12:50;;;;;;;;;;;;;;;20.91;80.38;97937.06;5075278;28;19924;-60
2023/06/21 04:15:20;;;;;;;;;;;;;;;20.87;79.85;97941.75;5072504;28;19932;-60
2023/06/21 04:17:49;;;;;;;;;;;;;;;20.87;80.01;97952.81;5101178;28;20406;-60
2023/06/21 04:20:19;;;;;;;;;;;;;;;20.95;79.75;97950.13;5075666;28;19924;-60
2023/06/21 04:22:46;;;;;;;;;;;;;;;20.97;79.90;97954.09;5074055;28;20019;-61
2023/06/21 04:25:14;;;;;;;;;;;;;;;20.95;80.30;97959.22;5074326;28;19975;-62
2023/06/21 04:27:45;;;;;;;;;;;;;;;20.98;80.40;97961.19;5065962;28;20339;-61
2023/06/21 04:30:13;;;;;;;;;;;;;;;20.99;80.39;97954.53;5067742;28;19931;-61
2023/06/21 04:32:44;;;;;;;;;;;;;;;20.99;80.06;97960.06;5087531;28;20334;-61
2023/06/21 04:35:14;;;;;;;;;;;;;;;20.99;79.88;97965.56;5078403;28;19925;-61
2023/06/21 04:37:44;;;;;;;;;;;;;;;21.00;80.02;97963.59;5078426;28;19977;-60
2023/06/21 04:40:14;;;;;;;;;;;;;;;21.09;79.84;97959.38;5080400;28;19978;-61
2023/06/21 04:42:45;;;;;;;;;;;;;;;21.09;80.42;97969.59;5059814;28;19924;-61
2023/06/21 04:45:17;;;;;;;;;;;;;;;21.13;81.17;97987.00;5080204;28;20333;-61
2023/06/21 04:47:46;;;;;;;;;;;;;;;21.13;81.09;97976.75;5088830;28;19924;-61
2023/06/21 04:50:14;;;;;;;;;;;;;;;21.20;80.54;97987.09;5086727;28;20433;-61
2023/06/21 04:52:49;;;;;;;;;;;;;;;21.24;79.88;97971.31;5084514;28;19931;-61
2023/06/21 04:55:18;;;;;;;;;;;;;;;21.32;79.86;97973.03;5083702;28;19924;-61
2023/06/21 04:57:47;;;;;;;;;;;;;;;21.38;80.28;97971.50;5074587;28;20022;-61
2023/06/21 05:00:15;;;;;;;;;;;;;;;21.39;80.45;97977.81;5069205;28;19928;-61
2023/06/21 05:02:43;;;;;;;;;;;;;;;21.48;80.28;97985.81;5080949;28;19928;-60
2023/06/21 05:05:10;;;;;;;;;;;;;;;21.45;81.16;97985.38;5066060;28;19939;-61
2023/06/21 05:07:43;;;;;;;;;;;;;;;21.58;81.51;97990.63;5085714;28;19924;-62
2023/06/21 05:10:12;;;;;;;;;;;;;;;21.64;80.44;97995.41;5063219;28;20381;-61
2023/06/21 05:12:39;;;;;;;;;;;;;;;21.75;78.77;97989.97;5086479;28;19929;-64
2023/06/21 05:15:07;;;;;;;;;;;;;;;21.65;79.94;97994.25;5085721;28;20352;-61
2023/06/21 05:17:36;;;;;;;;;;;;;;;21.67;79.68;98002.16;5071975;28;19963;-61
2023/06/21 05:20:04;;;;;;;;;;;;;;;21.76;78.85;98008.16;5089856;28;19928;-60
2023/06/21 05:22:32;;;;;;;;;;;;;;;21.80;78.29;98013.72;5091525;28;19924;-61
2023/06/21 05:25:00;;;;;;;;;;;;;;;21.90;78.55;98018.53;5086046;28;19924;-61
2023/06/21 05:27:29;;;;;;;;;;;;;;;21.90;79.27;98027.63;5077223;28;19939;-61
2023/06/21 05:29:57;;;;;;;;;;;;;;;21.95;78.37;98026.50;5079727;28;20023;-62
2023/06/21 05:32:25;;;;;;;;;;;;;;;;;;5088694;28;19928;-60
2023/06/21 05:34:54;;;;;;;;;;;;;;;;;;5093011;28;19931;-61
2023/06/21 05:37:22;;;;;;;;;;;;;;;22.02;79.39;98042.34;5099119;28;19924;-60
2023/06/21 05:39:50;;;;;;;;;;;;;;;21.95;78.67;98054.94;5089074;28;19954;-60
2023/06/21 05:42:18;;;;;;;;;;;;;;;21.83;77.38;98060.75;5072681;28;19924;-61
2023/06/21 05:44:47;;;;;;;;;;;;;;;21.72;77.32;98084.75;5083434;28;19924;-61
2023/06/21 05:47:15;;;;;;;;;;;;;;;21.62;77.33;98099.25;5066188;28;19959;-60
2023/06/21 05:49:43;;;;;;;;;;;;;;;21.58;78.15;98109.50;5082403;28;20019;-62
2023/06/21 05:52:11;;;;;;;;;;;;;;;21.44;78.76;98135.81;5082035;28;19927;-61
2023/06/21 05:54:41;;;;;;;;;;;;;;;21.34;79.02;98136.47;5076556;28;20020;-61
2023/06/21 05:57:09;;;;;;;;;;;;;;;21.35;79.69;98143.59;5077399;28;19925;-61
2023/06/21 05:59:37;;;;;;;;;;;;;;;21.38;79.87;98136.53;5074231;28;20320;-62
2023/06/21 06:02:09;;;;;;;;;;;;;;;21.39;79.89;98147.19;5068133;28;19971;-61
2023/06/21 06:04:39;;;;;;;;;;;;;;;21.42;79.55;98145.66;5077944;28;19928;-61
2023/06/21 06:07:07;;;;;;;;;;;;;;;21.47;78.72;98158.34;5086645;28;19965;-61
2023/06/21 06:09:35;;;;;;;;;;;;;;;21.54;78.79;98145.41;5069884;28;19925;-60
2023/06/21 06:12:03;;;;;;;;;;;;;;;21.59;78.34;98147.03;5084029;28;19978;-61
2023/06/21 06:14:33;;;;;;;;;;;;;;;21.64;79.04;98138.41;5062630;28;19944;-61
2023/06/21 06:17:01;;;;;;;;;;;;;;;21.64;77.25;98146.69;5061268;28;19928;-60
2023/06/21 06:19:30;;;;;;;;;;;;;;;21.63;76.62;98162.50;5088045;28;19928;-60
2023/06/21 06:21:58;;;;;;;;;;;;;;;21.69;76.43;98157.41;5075615;28;19941;-61
2023/06/21 06:24:27;;;;;;;;;;;;;;;21.81;76.20;98148.06;5079065;28;19924;-61
2023/06/21 06:26:57;;;;;;;;;;;;;;;21.87;76.92;98136.25;5072645;28;19925;-60
2023/06/21 06:29:25;;;;;;;;;;;;;;;21.87;75.35;98143.75;5072659;28;19924;-60
2023/06/21 06:31:52;;;;;;;;;;;;;;;21.84;74.13;98134.28;5080210;28;20011;-61
2023/06/21 06:34:23;;;;;;;;;;;;;;;21.84;73.75;98125.16;5085973;28;20636;-60
2023/06/21 06:36:53;;;;;;;;;;;;;;;21.89;74.93;98122.84;5077720;28;19928;-61
2023/06/21 06:39:38;;;;;;;;;;;;;;;21.95;73.69;98115.78;5069719;28;19931;-60
2023/06/21 06:42:06;;;;;;;;;;;;;;;22.04;72.87;98106.38;5085175;28;20451;-60
2023/06/21 06:44:35;;;;;;;;;;;;;;;22.10;71.80;98113.13;5061352;28;19940;-60
2023/06/21 06:47:03;;;;;;;;;;;;;;;22.13;71.94;98109.66;5086611;28;19977;-60
2023/06/21 06:49:30;;;;;;;;;;;;;;;22.14;73.82;98116.75;5083467;28;19924;-60
2023/06/21 06:52:00;;;;;;;;;;;;;;;22.18;73.61;98123.13;5075644;28;19935;-61
2023/06/21 06:54:28;;;;;;;;;;;;;;;22.20;73.56;98124.31;5086409;28;19932;-59
2023/06/21 06:56:56;;;;;;;;;;;;;;;22.29;72.42;98126.78;5083862;28;19924;-62
2023/06/21 06:59:24;;;;;;;;;;;;;;;22.36;69.87;98124.03;5089898;28;19967;-61
2023/06/21 07:01:54;;;;;;;;;;;;;;;22.44;68.75;98114.63;5084660;28;19925;-60
2023/06/21 07:04:22;;;;;;;;;;;;;;;22.54;69.44;98106.78;5078547;28;19932;-60
2023/06/21 07:06:50;;;;;;;;;;;;;;;22.57;67.61;98106.00;5086334;28;19924;-60
2023/06/21 07:09:19;;;;;;;;;;;;;;;22.54;65.96;98098.47;5087172;28;19990;-62
2023/06/21 07:11:47;;;;;;;;;;;;;;;22.56;64.81;98104.41;5063054;28;19925;-61
2023/06/21 07:14:15;;;;;;;;;;;;;;;22.58;66.48;98097.28;5074987;28;19924;-61
2023/06/21 07:16:43;;;;;;;;;;;;;;;22.58;64.94;98096.50;5068423;28;19973;-61
2023/06/21 07:19:10;;;;;;;;;;;;;;;22.64;64.87;98101.31;5083068;28;19928;-61
2023/06/21 07:21:39;;;;;;;;;;;;;;;22.65;64.61;98107.66;5082641;28;19981;-61
2023/06/21 07:24:07;;;;;;;;;;;;;;;22.74;63.50;98102.53;5063601;28;19928;-60
2023/06/21 07:26:36;;;;;;;;;;;;;;;22.84;65.56;98103.78;5072814;28;19924;-61
2023/06/21 07:29:09;;;;;;;;;;;;;;;22.87;65.46;98108.56;5083868;28;19934;-61
2023/06/21 07:31:37;;;;;;;;;;;;;;;22.95;66.51;98099.91;5062977;28;19978;-61
2023/06/21 07:34:07;;;;;;;;;;;;;;;23.00;64.85;98094.00;5085571;28;19946;-62
2023/06/21 07:36:37;;;;;;;;;;;;;;;23.04;64.83;98102.31;5058541;28;19931;-60
2023/06/21 07:39:08;;;;;;;;;;;;;;;23.06;65.39;98099.16;5077278;28;19931;-60
2023/06/21 07:41:37;;;;;;;;;;;;;;;22.99;64.03;98100.72;5072706;28;19972;-60
2023/06/21 07:44:05;;;;;;;;;;;;;;;22.92;60.79;98078.53;5083880;28;19931;-61
2023/06/21 07:46:33;;;;;;;;;;;;;;;22.95;61.45;98060.31;5083328;28;19971;-60
2023/06/21 07:49:01;;;;;;;;;;;;;;;23.03;61.88;98050.06;5076636;28;20289;-60
2023/06/21 07:51:29;;;;;;;;;;;;;;;23.06;62.81;98057.59;5075009;28;19931;-62
2023/06/21 07:53:57;;;;;;;;;;;;;;;23.09;64.11;98067.91;5084095;28;20479;-61
2023/06/21 07:56:24;;;;;;;;;;;;;;;23.13;62.71;98077.03;5060866;28;19998;-62
2023/06/21 07:58:54;;;;;;;;;;;;;;;23.15;61.81;98074.66;5073955;28;20262;-62
2023/06/21 08:01:21;;;;;;;;;;;;;;;23.19;61.65;98069.94;5062384;28;19928;-62
2023/06/21 08:03:49;;;;;;;;;;;;;;;23.24;61.36;98077.88;5078002;28;19985;-62
2023/06/21 08:06:20;;;;;;;;;;;;;;;23.30;61.76;98075.50;5087065;28;19924;-62
2023/06/21 08:08:48;;;;;;;;;;;;;;;23.25;57.33;98066.38;5077497;28;20248;-62
2023/06/21 08:11:15;;;;;;;;;;;;;;;23.34;58.86;98060.47;5058175;28;20342;-62
2023/06/21 08:13:43;;;;;;;;;;;;;;;23.41;55.70;98059.69;5073532;28;20339;-62
2023/06/21 08:16:13;;;;;;;;;;;;;;;23.47;56.55;98053.34;5057791;28;19932;-62
2023/06/21 08:18:40;;;;;;;;;;;;;;;23.51;56.96;98053.38;5061050;28;19964;-62
2023/06/21 08:21:10;;;;;;;;;;;;;;;23.57;56.15;98057.34;5071451;28;20036;-61
2023/06/21 08:23:38;;;;;;;;;;;;;;;23.65;56.38;98053.44;5078220;28;19924;-61
2023/06/21 08:26:06;;;;;;;;;;;;;;;23.65;55.99;98058.16;5079726;28;19971;-61
2023/06/21 08:28:34;;;;;;;;;;;;;;;23.62;56.62;98053.38;5082298;28;19939;-61
2023/06/21 08:31:02;;;;;;;;;;;;;;;23.68;57.04;98057.38;5075360;28;19924;-61
2023/06/21 08:33:31;;;;;;;;;;;;;;;23.67;57.33;98058.56;5082535;28;20369;-62
2023/06/21 08:35:58;;;;;;;;;;;;;;;23.70;56.97;98055.00;5075805;28;19963;-61
2023/06/21 08:38:26;;;;;;;;;;;;;;;23.69;55.89;98065.31;5076677;28;19929;-60
2023/06/21 08:40:56;;;;;;;;;;;;;;;23.68;54.16;98057.38;5074051;28;19924;-61
2023/06/21 08:43:24;;;;;;;;;;;;;;;23.71;55.52;98051.06;5091602;28;19924;-61
2023/06/21 08:45:52;;;;;;;;;;;;;;;23.79;54.39;98058.19;5081428;28;19982;-60
2023/06/21 08:48:20;;;;;;;;;;;;;;;23.90;53.18;98060.97;5089712;28;19951;-61
2023/06/21 08:50:49;;;;;;;;;;;;;;;23.93;52.91;98063.75;5079127;28;19954;-61
2023/06/21 08:53:18;;;;;;;;;;;;;;;23.99;53.51;98075.25;5083165;28;20496;-63
2023/06/21 08:55:46;;;;;;;;;;;;;;;24.01;53.25;98075.63;5080557;28;19928;-61
2023/06/21 08:58:16;;;;;;;;;;;;;;;24.07;53.08;98071.25;5088761;28;19960;-61
2023/06/21 09:00:44;;;;;;;;;;;;;;;24.15;53.27;98072.06;5084094;28;19924;-61
2023/06/21 09:03:13;;;;;;;;;;;;;;;24.17;52.57;98070.47;5081111;28;19928;-61
2023/06/21 09:05:43;;;;;;;;;;;;;;;24.18;52.70;98077.63;5084916;28;19927;-60
2023/06/21 09:08:14;;;;;;;;;;;;;;;24.23;53.01;98098.63;5082594;28;19955;-61
2023/06/21 09:10:43;;;;;;;;;;;;;;;24.19;53.72;98093.09;5085539;28;19928;-61
2023/06/21 09:13:11;;;;;;;;;;;;;;;24.26;54.23;98098.63;5093880;28;20362;-61
2023/06/21 09:15:39;;;;;;;;;;;;;;;24.27;53.67;98097.44;5072654;28;20049;-61
2023/06/21 09:18:07;;;;;;;;;;;;;;;24.32;53.58;98099.00;5081886;28;19928;-61
2023/06/21 09:20:35;;;;;;;;;;;;;;;24.43;53.41;98105.38;5105372;28;20354;-61
2023/06/21 09:23:02;;;;;;;;;;;;;;;24.37;54.10;98115.31;5066283;28;19960;-61
2023/06/21 09:25:34;;;;;;;;;;;;;;;24.38;53.28;98122.44;5088444;28;19924;-61
2023/06/21 09:28:02;;;;;;;;;;;;;;;24.38;53.47;98128.00;5091610;28;20301;-61
2023/06/21 09:30:30;;;;;;;;;;;;;;;24.46;52.42;98117.69;5085014;28;20039;-61
2023/06/21 09:33:05;;;;;;;;;;;;;;;24.49;52.80;98111.31;5075875;28;19924;-61
2023/06/21 09:35:33;;;;;;;;;;;;;;;24.52;52.55;98116.09;5084228;28;19932;-61
2023/06/21 09:38:01;;;;;;;;;;;;;;;24.50;50.56;98118.44;5086255;28;19928;-60
2023/06/21 09:40:29;;;;;;;;;;;;;;;24.54;51.92;98116.47;5034210;28;20342;-62
2023/06/21 09:42:58;;;;;;;;;;;;;;;24.55;52.60;98116.09;5076735;28;19924;-62
2023/06/21 09:45:26;;;;;;;;;;;;;;;24.60;51.34;98116.84;5091899;28;20015;-62
2023/06/21 09:47:54;;;;;;;;;;;;;;;24.52;51.40;98105.78;5078343;28;20017;-62
2023/06/21 09:50:22;;;;;;;;;;;;;;;24.55;51.94;98095.84;5088252;28;19935;-62
2023/06/21 09:52:50;;;;;;;;;;;;;;;24.61;51.61;98097.03;5065184;28;19924;-62
2023/06/21 09:55:18;;;;;;;;;;;;;;;24.80;50.75;98099.34;5059275;28;19924;-61
2023/06/21 09:57:45;;;;;;;;;;;;;;;24.69;51.93;98104.16;5086859;28;19943;-60
2023/06/21 10:00:15;;;;;;;;;;;;;;;24.70;51.44;98105.72;5077405;28;19993;-62
2023/06/21 10:02:43;;;;;;;;;;;;;;;24.76;51.91;98103.31;5081504;28;19924;-62
2023/06/21 10:05:17;;;;;;;;;;;;;;;24.69;52.18;98104.16;5082566;28;19928;-61
2023/06/21 10:07:45;;;;;;;;;;;;;;;24.67;52.76;98102.97;5082957;28;19924;-61
2023/06/21 10:10:13;;;;;;;;;;;;;;;24.68;53.15;98107.34;5084491;28;20359;-62
2023/06/21 10:12:49;;;;;;;;;;;;;;;24.68;53.43;98119.22;5086488;28;19955;-63
2023/06/21 10:15:20;;;;;;;;;;;;;;;24.79;52.44;98122.00;5080368;28;19967;-62
2023/06/21 10:17:48;;;;;;;;;;;;;;;24.73;52.80;98129.16;5066062;28;19974;-62
2023/06/21 10:20:27;;;;;;;;;;;;;;;24.64;53.12;98128.75;5063978;28;20039;-62
2023/06/21 10:22:55;;;;;;;;;;;;;;;24.65;53.99;98127.56;5078776;28;20023;-62
2023/06/21 10:25:22;;;;;;;;;;;;;;;24.68;54.00;98130.34;5084990;28;20311;-62
2023/06/21 10:27:50;;;;;;;;;;;;;;;24.69;54.51;98131.13;5087474;28;19924;-61
2023/06/21 10:30:20;;;;;;;;;;;;;;;24.83;53.77;98137.47;5075633;28;20614;-61
2023/06/21 10:32:48;;;;;;;;;;;;;;;24.77;53.21;98139.06;5061192;28;19924;-62
2023/06/21 10:35:17;;;;;;;;;;;;;;;24.83;54.54;98145.00;5081137;28;19985;-61
2023/06/21 10:37:48;;;;;;;;;;;;;;;24.85;54.43;98167.63;5067366;28;19974;-62
2023/06/21 10:40:16;;;;;;;;;;;;;;;24.82;54.62;98162.84;5079017;28;20015;-61
2023/06/21 10:42:44;;;;;;;;;;;;;;;24.82;52.25;98158.09;5081770;28;20416;-61
2023/06/21 10:45:13;;;;;;;;;;;;;;;24.85;53.50;98172.38;5063133;28;19928;-61
2023/06/21 10:47:42;;;;;;;;;;;;;;;24.87;52.18;98178.31;5071324;28;20481;-61
2023/06/21 10:50:10;;;;;;;;;;;;;;;24.86;52.90;98197.00;5088293;28;20361;-62
2023/06/21 10:52:38;;;;;;;;;;;;;;;24.82;52.18;98208.13;5079792;28;19924;-61
2023/06/21 10:55:06;;;;;;;;;;;;;;;24.83;52.88;98226.38;5083407;28;20345;-61
2023/06/21 10:57:35;;;;;;;;;;;;;;;24.76;52.32;98242.25;5075192;28;20023;-61
2023/06/21 11:00:03;;;;;;;;;;;;;;;24.72;53.40;98252.59;5080947;28;20315;-62
2023/06/21 11:02:33;;;;;;;;;;;;;;;24.68;52.28;98257.34;5080294;28;19935;-62
2023/06/21 11:05:16;;;;;;;;;;;;;;;24.58;52.29;98250.59;5075222;28;19932;-62
2023/06/21 11:07:51;;;;;;;;;;;;;;;24.54;51.44;98231.13;5046776;28;19931;-62
2023/06/21 11:10:20;;;;;;;;;;;;;;;24.46;50.93;98229.56;5041606;28;19982;-62
2023/06/21 11:12:49;;;;;;;;;;;;;;;24.44;50.31;98223.59;5061188;28;19970;-61
2023/06/21 11:15:23;;;;;;;;;;;;;;;24.42;50.83;98222.41;5044097;28;20141;-61
2023/06/21 11:18:00;;;;;;;;;;;;;;;24.45;51.59;98230.75;5058702;28;19924;-61
2023/06/21 11:20:32;;;;;;;;;;;;;;;24.45;51.40;98243.81;5055921;28;19955;-61
2023/06/21 11:23:00;;;;;;;;;;;;;;;24.46;51.53;98239.88;5062518;28;19924;-61
2023/06/21 11:25:28;;;;;;;;;;;;;;;24.46;50.92;98240.69;5069283;28;19975;-62
2023/06/21 11:28:21;;;;;;;;;;;;;;;24.45;51.45;98230.75;5074602;28;20326;-62
2023/06/21 11:31:03;;;;;;;;;;;;;;;24.48;52.08;98223.59;5049147;28;20027;-63
2023/06/21 11:33:33;;;;;;;;;;;;;;;24.46;50.62;98214.88;5056047;28;20320;-62
2023/06/21 11:36:04;;;;;;;;;;;;;;;24.42;50.13;98208.53;5053198;28;20377;-62
2023/06/21 11:38:32;;;;;;;;;;;;;;;24.39;50.67;98204.53;5039684;28;20005;-62
2023/06/21 11:41:00;;;;;;;;;;;;;;;24.32;51.91;98212.84;5062614;28;19932;-61
2023/06/21 11:43:28;;;;;;;;;;;;;;;24.25;50.36;98226.75;5063053;28;19924;-61
2023/06/21 11:45:57;;;;;;;;;;;;;;;24.15;51.02;98219.19;5058107;28;20404;-63
2023/06/21 11:48:25;;;;;;;;;;;;;;;24.11;51.89;98221.16;5052463;28;19924;-61
2023/06/21 11:50:54;;;;;;;;;;;;;;;24.14;52.90;98218.38;5053770;28;19928;-62
2023/06/21 11:53:26;;;;;;;;;;;;;;;24.08;52.92;98227.50;5064325;28;20265;-61
2023/06/21 11:55:55;;;;;;;;;;;;;;;24.13;53.56;98221.53;5062083;28;20023;-61
2023/06/21 11:58:23;;;;;;;;;;;;;;;24.08;54.70;98219.19;5057824;28;19932;-61
2023/06/21 12:00:52;;;;;;;;;;;;;;;24.04;54.63;98214.41;5051562;28;19928;-61
2023/06/21 12:03:21;;;;;;;;;;;;;;;23.95;53.99;98215.97;5059710;28;19956;-63
2023/06/21 12:05:50;;;;;;;;;;;;;;;23.97;55.37;98208.84;5078614;28;19928;-62
2023/06/21 12:08:18;;;;;;;;;;;;;;;23.79;54.73;98203.22;5082002;28;20373;-61
2023/06/21 12:10:47;;;;;;;;;;;;;;;23.71;54.88;98192.53;5079808;28;19980;-61
2023/06/21 12:13:16;;;;;;;;;;;;;;;23.70;56.62;98193.69;5062273;28;19936;-62
2023/06/21 12:15:48;;;;;;;;;;;;;;;23.56;55.87;98182.53;5086303;28;19957;-61
2023/06/21 12:18:16;;;;;;;;;;;;;;;23.46;56.90;98173.78;5085160;28;19924;-61
2023/06/21 12:20:44;;;;;;;;;;;;;;;23.38;56.68;98172.16;5091674;28;20274;-61
2023/06/21 12:23:14;;;;;;;;;;;;;;;23.32;56.52;98157.06;5093139;28;19924;-61
2023/06/21 12:25:43;;;;;;;;;;;;;;;23.32;58.25;98148.75;5070990;28;20383;-60
2023/06/21 12:28:13;;;;;;;;;;;;;;;23.39;58.27;98146.03;5080339;28;19966;-62
2023/06/21 12:30:48;;;;;;;;;;;;;;;23.39;58.17;98134.94;5049128;27;19924;-62
2023/06/21 12:33:16;;;;;;;;;;;;;;;23.44;58.85;98136.56;5095230;28;19932;-62
2023/06/21 12:35:44;;;;;;;;;;;;;;;23.35;58.83;98139.69;5081227;28;19932;-63
2023/06/21 12:38:13;;;;;;;;;;;;;;;23.34;59.60;98153.94;5083006;28;19979;-64
2023/06/21 12:40:54;;;;;;;;;;;;;;;23.29;60.46;98157.09;5079295;28;20007;-64
2023/06/21 12:43:34;;;;;;;;;;;;;;;23.12;61.17;98164.13;5086777;28;20071;-63
2023/06/21 12:46:02;;;;;;;;;;;;;;;22.89;62.57;98167.94;5073312;28;19931;-63
2023/06/21 12:48:30;;;;;;;;;;;;;;;22.81;64.35;98177.38;5082979;28;19928;-62
2023/06/21 12:50:58;;;;;;;;;;;;;;;22.81;65.68;98171.03;5081372;28;20027;-62
2023/06/21 12:53:26;;;;;;;;;;;;;;;22.58;64.71;98174.81;5082523;28;20297;-62
2023/06/21 12:55:56;;;;;;;;;;;;;;;22.52;65.90;98173.59;5082627;28;19928;-62
2023/06/21 12:58:23;;;;;;;;;;;;;;;22.50;66.43;98184.28;5080410;28;20323;-63
2023/06/21 13:00:53;;;;;;;;;;;;;;;22.30;66.58;98189.25;5060805;28;20006;-63